PECK1: Ninnescah River, Peck, KS

Data processed at Sat Aug 19 2017 22:10


All information presented herein is the property of the government of the United States of America and may be revised or deleted at any time without prior notice.
Dissemination of this information without the expressed written consent of the Public Affairs Office, Tulsa District U.S. Army Corps of Engineers is strictly prohibited.
These data are gathered electronically and, as presented, have not undergone any form of quality control. These data are not guaranteed to be valid or correct.
Go to home page.
Go to station list.

Upstream stations:

Downstream station:
Previous Day
Next Day
Current Day
    
SHEF ID:       PECK1     NINNESCAH R NR PECK, KS
STATION TYPE:  

               PRECIP     STAGE  RIV-FLOW  BAT-LOAD
                   in        ft       cfs      volt
              Ccp-Rev   Ccp-Rev   Ccp-Rev   Ccp-Rev
(US/Central)
08/19 00:00      0.00      2.78       116     12.65
08/19 01:00      0.00      2.78       116     12.65
08/19 02:00      0.00      2.78       116     12.57
08/19 03:00      0.00      2.78       116     12.57
08/19 04:00      0.00      2.78       116     12.49
08/19 05:00      0.00      2.78       116     12.49
08/19 06:00      0.00      2.78       116     12.49
08/19 07:00      0.00      2.78       116     12.49
08/19 08:00      0.00      2.78       116     12.49
08/19 09:00      0.00      2.78       116     12.49
08/19 10:00      0.00      2.78       116     12.57
08/19 11:00      0.00      2.77       114     13.05
08/19 12:00      0.00      2.76       112     12.97
08/19 13:00      0.00      2.76       112     13.05
08/19 14:00      0.00      2.75       109     13.05
08/19 15:00      0.00      2.75       109     12.81
08/19 16:00      0.00      2.75       109     13.13
08/19 17:00      0.11      2.76       112     13.13
08/19 18:00      0.22      2.80       121     12.81
08/19 19:00      0.02      2.81       124     12.73
08/19 20:00      0.00      2.79       119     12.57
08/19 21:00      0.00      2.78       116     12.57
08/19 22:00      0.00      2.77       114     12.57
08/19 23:00      ----      ----      ----      ----